sensor_id;sensor_type;location;lat;lon;timestamp;P1;durP1;ratioP1;P2;durP2;ratioP2
61525;SDS011;47394;41.366;-8.738;2022-12-29T00:00:14;30.35;;;4.57;;
61525;SDS011;47394;41.366;-8.738;2022-12-29T00:02:15;29.60;;;4.25;;
61525;SDS011;47394;41.366;-8.738;2022-12-29T00:04:15;35.72;;;5.38;;
61525;SDS011;47394;41.366;-8.738;2022-12-29T00:06:16;42.95;;;6.70;;
61525;SDS011;47394;41.366;-8.738;2022-12-29T00:08:16;42.33;;;5.68;;
61525;SDS011;47394;41.366;-8.738;2022-12-29T00:10:17;41.90;;;5.90;;
61525;SDS011;47394;41.366;-8.738;2022-12-29T00:12:17;36.15;;;6.03;;
61525;SDS011;47394;41.366;-8.738;2022-12-29T00:14:18;43.47;;;4.78;;
61525;SDS011;47394;41.366;-8.738;2022-12-29T00:16:37;48.22;;;5.57;;
61525;SDS011;47394;41.366;-8.738;2022-12-29T00:18:38;33.53;;;5.03;;
61525;SDS011;47394;41.366;-8.738;2022-12-29T00:20:39;29.33;;;5.57;;
61525;SDS011;47394;41.366;-8.738;2022-12-29T00:22:57;27.73;;;4.80;;
61525;SDS011;47394;41.366;-8.738;2022-12-29T00:25:16;30.00;;;4.05;;
61525;SDS011;47394;41.366;-8.738;2022-12-29T00:27:37;28.42;;;5.28;;
61525;SDS011;47394;41.366;-8.738;2022-12-29T00:29:56;21.77;;;3.88;;
61525;SDS011;47394;41.366;-8.738;2022-12-29T00:32:15;33.53;;;4.72;;
61525;SDS011;47394;41.366;-8.738;2022-12-29T00:34:34;43.45;;;4.28;;
61525;SDS011;47394;41.366;-8.738;2022-12-29T00:36:53;32.70;;;4.35;;
61525;SDS011;47394;41.366;-8.738;2022-12-29T00:39:01;31.92;;;4.15;;
61525;SDS011;47394;41.366;-8.738;2022-12-29T00:41:20;39.80;;;5.40;;
61525;SDS011;47394;41.366;-8.738;2022-12-29T00:43:39;54.03;;;5.38;;
61525;SDS011;47394;41.366;-8.738;2022-12-29T00:45:58;29.60;;;4.15;;
61525;SDS011;47394;41.366;-8.738;2022-12-29T00:47:59;31.20;;;3.70;;
61525;SDS011;47394;41.366;-8.738;2022-12-29T00:49:59;39.22;;;4.90;;
61525;SDS011;47394;41.366;-8.738;2022-12-29T00:52:03;37.20;;;5.30;;
61525;SDS011;47394;41.366;-8.738;2022-12-29T00:54:04;27.40;;;3.70;;
61525;SDS011;47394;41.366;-8.738;2022-12-29T00:56:04;30.92;;;4.13;;
61525;SDS011;47394;41.366;-8.738;2022-12-29T00:58:05;38.88;;;6.32;;
61525;SDS011;47394;41.366;-8.738;2022-12-29T01:00:05;36.80;;;5.95;;
61525;SDS011;47394;41.366;-8.738;2022-12-29T01:02:06;42.03;;;6.03;;
61525;SDS011;47394;41.366;-8.738;2022-12-29T01:04:07;36.38;;;6.05;;
61525;SDS011;47394;41.366;-8.738;2022-12-29T01:06:09;42.30;;;4.63;;
61525;SDS011;47394;41.366;-8.738;2022-12-29T01:08:11;31.10;;;4.93;;
61525;SDS011;47394;41.366;-8.738;2022-12-29T01:10:11;36.42;;;4.75;;
61525;SDS011;47394;41.366;-8.738;2022-12-29T01:12:12;35.88;;;4.80;;
61525;SDS011;47394;41.366;-8.738;2022-12-29T01:14:13;34.13;;;4.57;;
61525;SDS011;47394;41.366;-8.738;2022-12-29T01:16:14;38.15;;;5.88;;
61525;SDS011;47394;41.366;-8.738;2022-12-29T01:18:15;38.90;;;4.47;;
61525;SDS011;47394;41.366;-8.738;2022-12-29T01:20:16;42.10;;;4.65;;
61525;SDS011;47394;41.366;-8.738;2022-12-29T01:22:16;31.77;;;4.93;;
61525;SDS011;47394;41.366;-8.738;2022-12-29T01:24:17;43.63;;;5.68;;
61525;SDS011;47394;41.366;-8.738;2022-12-29T01:26:18;48.22;;;6.22;;
61525;SDS011;47394;41.366;-8.738;2022-12-29T01:28:19;41.90;;;6.05;;
61525;SDS011;47394;41.366;-8.738;2022-12-29T01:30:19;45.30;;;5.40;;
61525;SDS011;47394;41.366;-8.738;2022-12-29T01:32:20;32.47;;;4.80;;
61525;SDS011;47394;41.366;-8.738;2022-12-29T01:34:20;26.27;;;4.03;;
61525;SDS011;47394;41.366;-8.738;2022-12-29T01:36:21;30.52;;;5.13;;
61525;SDS011;47394;41.366;-8.738;2022-12-29T01:38:22;26.60;;;4.22;;
61525;SDS011;47394;41.366;-8.738;2022-12-29T01:40:23;32.00;;;4.68;;
61525;SDS011;47394;41.366;-8.738;2022-12-29T01:42:24;36.03;;;5.53;;
61525;SDS011;47394;41.366;-8.738;2022-12-29T01:46:45;33.72;;;4.30;;
61525;SDS011;47394;41.366;-8.738;2022-12-29T01:48:47;46.97;;;6.10;;
61525;SDS011;47394;41.366;-8.738;2022-12-29T01:50:49;47.50;;;5.57;;
61525;SDS011;47394;41.366;-8.738;2022-12-29T01:52:54;27.00;;;4.60;;
61525;SDS011;47394;41.366;-8.738;2022-12-29T01:54:56;39.38;;;4.45;;
61525;SDS011;47394;41.366;-8.738;2022-12-29T01:56:59;55.13;;;6.53;;
61525;SDS011;47394;41.366;-8.738;2022-12-29T01:59:04;68.13;;;7.03;;
61525;SDS011;47394;41.366;-8.738;2022-12-29T02:01:05;57.95;;;7.45;;
61525;SDS011;47394;41.366;-8.738;2022-12-29T02:03:06;80.50;;;7.93;;
61525;SDS011;47394;41.366;-8.738;2022-12-29T02:05:09;61.15;;;6.85;;
61525;SDS011;47394;41.366;-8.738;2022-12-29T02:07:13;45.80;;;5.70;;
61525;SDS011;47394;41.366;-8.738;2022-12-29T02:09:14;47.45;;;4.80;;
61525;SDS011;47394;41.366;-8.738;2022-12-29T02:11:15;31.40;;;3.20;;
61525;SDS011;47394;41.366;-8.738;2022-12-29T02:13:16;35.00;;;4.30;;
61525;SDS011;47394;41.366;-8.738;2022-12-29T02:15:21;40.30;;;3.88;;
61525;SDS011;47394;41.366;-8.738;2022-12-29T02:19:42;19.27;;;2.80;;
61525;SDS011;47394;41.366;-8.738;2022-12-29T02:21:57;34.97;;;3.47;;
61525;SDS011;47394;41.366;-8.738;2022-12-29T02:28:17;32.72;;;4.07;;
61525;SDS011;47394;41.366;-8.738;2022-12-29T02:37:00;41.25;;;3.83;;
61525;SDS011;47394;41.366;-8.738;2022-12-29T02:41:12;41.85;;;5.05;;
61525;SDS011;47394;41.366;-8.738;2022-12-29T02:43:32;48.45;;;6.15;;
61525;SDS011;47394;41.366;-8.738;2022-12-29T02:45:47;33.53;;;4.50;;
61525;SDS011;47394;41.366;-8.738;2022-12-29T02:50:25;39.67;;;4.53;;
61525;SDS011;47394;41.366;-8.738;2022-12-29T02:52:28;26.05;;;4.07;;
61525;SDS011;47394;41.366;-8.738;2022-12-29T02:54:30;26.65;;;3.13;;
61525;SDS011;47394;41.366;-8.738;2022-12-29T02:56:43;34.10;;;3.65;;
61525;SDS011;47394;41.366;-8.738;2022-12-29T02:58:44;36.53;;;4.10;;
61525;SDS011;47394;41.366;-8.738;2022-12-29T03:01:03;25.25;;;3.85;;
61525;SDS011;47394;41.366;-8.738;2022-12-29T03:03:29;31.42;;;3.78;;
61525;SDS011;47394;41.366;-8.738;2022-12-29T03:06:35;28.80;;;3.60;;
61525;SDS011;47394;41.366;-8.738;2022-12-29T03:10:18;32.47;;;4.32;;
61525;SDS011;47394;41.366;-8.738;2022-12-29T03:14:57;35.65;;;4.20;;
61525;SDS011;47394;41.366;-8.738;2022-12-29T03:17:46;37.80;;;4.30;;
61525;SDS011;47394;41.366;-8.738;2022-12-29T03:19:43;30.50;;;4.57;;
61525;SDS011;47394;41.366;-8.738;2022-12-29T03:21:47;33.92;;;4.70;;
61525;SDS011;47394;41.366;-8.738;2022-12-29T03:24:27;30.05;;;4.60;;
61525;SDS011;47394;41.366;-8.738;2022-12-29T03:26:30;36.60;;;4.88;;
61525;SDS011;47394;41.366;-8.738;2022-12-29T03:28:36;45.80;;;6.75;;
61525;SDS011;47394;41.366;-8.738;2022-12-29T03:30:38;39.95;;;6.13;;
61525;SDS011;47394;41.366;-8.738;2022-12-29T03:32:44;46.13;;;5.75;;
61525;SDS011;47394;41.366;-8.738;2022-12-29T03:34:48;39.17;;;4.40;;
61525;SDS011;47394;41.366;-8.738;2022-12-29T03:36:53;43.53;;;4.90;;
61525;SDS011;47394;41.366;-8.738;2022-12-29T03:39:05;36.00;;;5.00;;
61525;SDS011;47394;41.366;-8.738;2022-12-29T03:41:09;45.95;;;5.97;;
61525;SDS011;47394;41.366;-8.738;2022-12-29T03:43:11;38.55;;;5.75;;
61525;SDS011;47394;41.366;-8.738;2022-12-29T03:45:13;39.30;;;5.80;;
61525;SDS011;47394;41.366;-8.738;2022-12-29T03:47:14;52.13;;;6.72;;
61525;SDS011;47394;41.366;-8.738;2022-12-29T03:49:16;34.85;;;6.05;;
61525;SDS011;47394;41.366;-8.738;2022-12-29T03:51:16;46.42;;;6.03;;
61525;SDS011;47394;41.366;-8.738;2022-12-29T03:53:17;52.15;;;6.70;;
61525;SDS011;47394;41.366;-8.738;2022-12-29T03:55:17;52.75;;;5.53;;
61525;SDS011;47394;41.366;-8.738;2022-12-29T03:57:18;41.75;;;4.95;;
61525;SDS011;47394;41.366;-8.738;2022-12-29T03:59:32;36.47;;;4.68;;
61525;SDS011;47394;41.366;-8.738;2022-12-29T04:01:32;40.47;;;5.32;;
61525;SDS011;47394;41.366;-8.738;2022-12-29T04:03:33;53.35;;;7.78;;
61525;SDS011;47394;41.366;-8.738;2022-12-29T04:05:34;52.40;;;6.55;;
61525;SDS011;47394;41.366;-8.738;2022-12-29T04:07:34;64.35;;;7.15;;
61525;SDS011;47394;41.366;-8.738;2022-12-29T04:09:37;49.20;;;7.47;;
61525;SDS011;47394;41.366;-8.738;2022-12-29T04:11:37;56.35;;;6.55;;
61525;SDS011;47394;41.366;-8.738;2022-12-29T04:13:38;37.45;;;6.72;;
61525;SDS011;47394;41.366;-8.738;2022-12-29T04:15:42;51.35;;;6.40;;
61525;SDS011;47394;41.366;-8.738;2022-12-29T04:17:43;46.00;;;6.45;;
61525;SDS011;47394;41.366;-8.738;2022-12-29T04:19:44;54.30;;;7.13;;
61525;SDS011;47394;41.366;-8.738;2022-12-29T04:21:44;37.22;;;6.20;;
61525;SDS011;47394;41.366;-8.738;2022-12-29T04:23:45;48.10;;;5.80;;
61525;SDS011;47394;41.366;-8.738;2022-12-29T04:25:46;61.85;;;6.70;;
61525;SDS011;47394;41.366;-8.738;2022-12-29T04:27:50;37.20;;;5.55;;
61525;SDS011;47394;41.366;-8.738;2022-12-29T04:30:09;50.63;;;6.55;;
61525;SDS011;47394;41.366;-8.738;2022-12-29T04:32:23;46.70;;;6.40;;
61525;SDS011;47394;41.366;-8.738;2022-12-29T04:34:26;50.92;;;6.88;;
61525;SDS011;47394;41.366;-8.738;2022-12-29T04:36:27;43.20;;;6.03;;
61525;SDS011;47394;41.366;-8.738;2022-12-29T04:38:28;43.22;;;4.97;;
61525;SDS011;47394;41.366;-8.738;2022-12-29T04:40:29;35.63;;;5.75;;
61525;SDS011;47394;41.366;-8.738;2022-12-29T04:42:30;38.78;;;5.70;;
61525;SDS011;47394;41.366;-8.738;2022-12-29T04:44:30;44.35;;;5.78;;
61525;SDS011;47394;41.366;-8.738;2022-12-29T04:47:00;37.42;;;5.13;;
61525;SDS011;47394;41.366;-8.738;2022-12-29T04:49:33;35.67;;;4.50;;
61525;SDS011;47394;41.366;-8.738;2022-12-29T04:51:49;30.98;;;5.10;;
61525;SDS011;47394;41.366;-8.738;2022-12-29T04:53:51;35.40;;;5.35;;
61525;SDS011;47394;41.366;-8.738;2022-12-29T04:55:52;30.55;;;5.13;;
61525;SDS011;47394;41.366;-8.738;2022-12-29T04:57:53;38.38;;;5.32;;
61525;SDS011;47394;41.366;-8.738;2022-12-29T04:59:54;45.15;;;5.78;;
61525;SDS011;47394;41.366;-8.738;2022-12-29T05:01:54;31.77;;;4.82;;
61525;SDS011;47394;41.366;-8.738;2022-12-29T05:03:56;43.45;;;5.88;;
61525;SDS011;47394;41.366;-8.738;2022-12-29T05:05:57;35.47;;;5.25;;
61525;SDS011;47394;41.366;-8.738;2022-12-29T05:07:58;55.22;;;6.15;;
61525;SDS011;47394;41.366;-8.738;2022-12-29T05:09:58;42.38;;;5.88;;
61525;SDS011;47394;41.366;-8.738;2022-12-29T05:12:00;45.33;;;6.60;;
61525;SDS011;47394;41.366;-8.738;2022-12-29T05:14:00;46.15;;;6.68;;
61525;SDS011;47394;41.366;-8.738;2022-12-29T05:16:01;40.55;;;6.60;;
61525;SDS011;47394;41.366;-8.738;2022-12-29T05:18:02;50.08;;;7.35;;
61525;SDS011;47394;41.366;-8.738;2022-12-29T05:20:04;46.80;;;6.80;;
61525;SDS011;47394;41.366;-8.738;2022-12-29T05:22:06;46.55;;;6.70;;
61525;SDS011;47394;41.366;-8.738;2022-12-29T05:24:07;68.00;;;7.78;;
61525;SDS011;47394;41.366;-8.738;2022-12-29T05:26:08;54.42;;;6.75;;
61525;SDS011;47394;41.366;-8.738;2022-12-29T05:28:27;46.78;;;7.10;;
61525;SDS011;47394;41.366;-8.738;2022-12-29T05:30:49;51.13;;;6.30;;
61525;SDS011;47394;41.366;-8.738;2022-12-29T05:32:51;50.03;;;6.93;;
61525;SDS011;47394;41.366;-8.738;2022-12-29T05:34:52;45.25;;;7.32;;
61525;SDS011;47394;41.366;-8.738;2022-12-29T05:36:53;52.10;;;6.80;;
61525;SDS011;47394;41.366;-8.738;2022-12-29T05:38:53;57.78;;;6.63;;
61525;SDS011;47394;41.366;-8.738;2022-12-29T05:40:54;46.65;;;6.93;;
61525;SDS011;47394;41.366;-8.738;2022-12-29T05:43:24;53.13;;;6.75;;
61525;SDS011;47394;41.366;-8.738;2022-12-29T05:45:42;57.70;;;8.20;;
61525;SDS011;47394;41.366;-8.738;2022-12-29T05:47:58;58.00;;;8.35;;
61525;SDS011;47394;41.366;-8.738;2022-12-29T05:50:36;43.92;;;6.78;;
61525;SDS011;47394;41.366;-8.738;2022-12-29T05:52:45;48.40;;;6.78;;
61525;SDS011;47394;41.366;-8.738;2022-12-29T05:54:46;49.53;;;6.75;;
61525;SDS011;47394;41.366;-8.738;2022-12-29T05:56:51;60.72;;;7.63;;
61525;SDS011;47394;41.366;-8.738;2022-12-29T05:58:51;56.88;;;8.23;;
61525;SDS011;47394;41.366;-8.738;2022-12-29T06:00:52;41.33;;;7.82;;
61525;SDS011;47394;41.366;-8.738;2022-12-29T06:02:53;63.42;;;8.23;;
61525;SDS011;47394;41.366;-8.738;2022-12-29T06:04:54;55.13;;;7.35;;
61525;SDS011;47394;41.366;-8.738;2022-12-29T06:06:55;56.00;;;7.80;;
61525;SDS011;47394;41.366;-8.738;2022-12-29T06:09:09;53.65;;;7.50;;
61525;SDS011;47394;41.366;-8.738;2022-12-29T06:11:11;48.00;;;6.93;;
61525;SDS011;47394;41.366;-8.738;2022-12-29T06:13:15;55.65;;;8.10;;
61525;SDS011;47394;41.366;-8.738;2022-12-29T06:17:19;38.55;;;6.05;;
61525;SDS011;47394;41.366;-8.738;2022-12-29T06:19:20;37.47;;;5.68;;
61525;SDS011;47394;41.366;-8.738;2022-12-29T06:21:20;41.47;;;6.68;;
61525;SDS011;47394;41.366;-8.738;2022-12-29T06:23:21;45.35;;;6.07;;
61525;SDS011;47394;41.366;-8.738;2022-12-29T06:25:22;31.20;;;6.15;;
61525;SDS011;47394;41.366;-8.738;2022-12-29T06:27:22;38.83;;;6.22;;
61525;SDS011;47394;41.366;-8.738;2022-12-29T06:29:25;28.20;;;4.82;;
61525;SDS011;47394;41.366;-8.738;2022-12-29T06:31:26;19.25;;;4.68;;
61525;SDS011;47394;41.366;-8.738;2022-12-29T06:33:26;40.03;;;5.93;;
61525;SDS011;47394;41.366;-8.738;2022-12-29T06:35:27;30.33;;;5.65;;
61525;SDS011;47394;41.366;-8.738;2022-12-29T06:37:28;40.17;;;7.22;;
61525;SDS011;47394;41.366;-8.738;2022-12-29T06:39:28;36.53;;;7.40;;
61525;SDS011;47394;41.366;-8.738;2022-12-29T06:41:39;45.00;;;6.07;;
61525;SDS011;47394;41.366;-8.738;2022-12-29T06:43:58;41.63;;;6.03;;
61525;SDS011;47394;41.366;-8.738;2022-12-29T06:46:19;40.20;;;7.57;;
61525;SDS011;47394;41.366;-8.738;2022-12-29T06:48:19;40.45;;;7.43;;
61525;SDS011;47394;41.366;-8.738;2022-12-29T06:50:20;47.90;;;8.82;;
61525;SDS011;47394;41.366;-8.738;2022-12-29T06:52:20;41.55;;;6.68;;
61525;SDS011;47394;41.366;-8.738;2022-12-29T06:54:21;38.05;;;6.93;;
61525;SDS011;47394;41.366;-8.738;2022-12-29T06:56:21;29.58;;;5.97;;
61525;SDS011;47394;41.366;-8.738;2022-12-29T06:58:22;43.13;;;5.63;;
61525;SDS011;47394;41.366;-8.738;2022-12-29T07:00:23;31.40;;;5.03;;
61525;SDS011;47394;41.366;-8.738;2022-12-29T07:02:24;35.63;;;4.70;;
61525;SDS011;47394;41.366;-8.738;2022-12-29T07:04:27;29.25;;;4.35;;
61525;SDS011;47394;41.366;-8.738;2022-12-29T07:06:28;22.67;;;3.75;;
61525;SDS011;47394;41.366;-8.738;2022-12-29T07:08:28;28.13;;;4.97;;
61525;SDS011;47394;41.366;-8.738;2022-12-29T07:10:29;24.67;;;4.18;;
61525;SDS011;47394;41.366;-8.738;2022-12-29T07:12:29;28.10;;;4.00;;
61525;SDS011;47394;41.366;-8.738;2022-12-29T07:14:30;27.80;;;4.35;;
61525;SDS011;47394;41.366;-8.738;2022-12-29T07:16:31;27.17;;;3.95;;
61525;SDS011;47394;41.366;-8.738;2022-12-29T07:18:32;21.17;;;3.88;;
61525;SDS011;47394;41.366;-8.738;2022-12-29T07:20:32;17.05;;;3.55;;
61525;SDS011;47394;41.366;-8.738;2022-12-29T07:22:32;28.85;;;4.35;;
61525;SDS011;47394;41.366;-8.738;2022-12-29T07:24:33;22.63;;;3.60;;
61525;SDS011;47394;41.366;-8.738;2022-12-29T07:26:33;44.85;;;5.25;;
61525;SDS011;47394;41.366;-8.738;2022-12-29T07:28:34;33.17;;;5.05;;
61525;SDS011;47394;41.366;-8.738;2022-12-29T07:30:36;38.92;;;4.50;;
61525;SDS011;47394;41.366;-8.738;2022-12-29T07:32:36;36.35;;;6.13;;
61525;SDS011;47394;41.366;-8.738;2022-12-29T07:34:37;36.85;;;7.18;;
61525;SDS011;47394;41.366;-8.738;2022-12-29T07:36:39;33.47;;;5.47;;
61525;SDS011;47394;41.366;-8.738;2022-12-29T07:38:40;36.40;;;4.60;;
61525;SDS011;47394;41.366;-8.738;2022-12-29T07:40:41;28.13;;;5.03;;
61525;SDS011;47394;41.366;-8.738;2022-12-29T07:42:41;31.40;;;5.70;;
61525;SDS011;47394;41.366;-8.738;2022-12-29T07:44:43;34.90;;;4.80;;
61525;SDS011;47394;41.366;-8.738;2022-12-29T07:46:50;27.67;;;4.68;;
61525;SDS011;47394;41.366;-8.738;2022-12-29T07:48:50;29.95;;;5.18;;
61525;SDS011;47394;41.366;-8.738;2022-12-29T07:50:51;37.22;;;5.22;;
61525;SDS011;47394;41.366;-8.738;2022-12-29T07:52:52;36.92;;;5.80;;
61525;SDS011;47394;41.366;-8.738;2022-12-29T07:54:52;32.97;;;6.53;;
61525;SDS011;47394;41.366;-8.738;2022-12-29T07:56:53;37.85;;;5.82;;
61525;SDS011;47394;41.366;-8.738;2022-12-29T07:58:53;42.83;;;6.40;;
61525;SDS011;47394;41.366;-8.738;2022-12-29T08:00:54;55.42;;;7.55;;
61525;SDS011;47394;41.366;-8.738;2022-12-29T08:02:55;44.63;;;7.05;;
61525;SDS011;47394;41.366;-8.738;2022-12-29T08:04:55;47.15;;;7.75;;
61525;SDS011;47394;41.366;-8.738;2022-12-29T08:06:56;42.22;;;7.13;;
61525;SDS011;47394;41.366;-8.738;2022-12-29T08:08:56;34.28;;;6.00;;
61525;SDS011;47394;41.366;-8.738;2022-12-29T08:10:57;44.45;;;6.70;;
61525;SDS011;47394;41.366;-8.738;2022-12-29T08:12:57;52.08;;;7.65;;
61525;SDS011;47394;41.366;-8.738;2022-12-29T08:14:58;37.58;;;6.82;;
61525;SDS011;47394;41.366;-8.738;2022-12-29T08:16:58;35.55;;;6.28;;
61525;SDS011;47394;41.366;-8.738;2022-12-29T08:18:59;35.67;;;5.53;;
61525;SDS011;47394;41.366;-8.738;2022-12-29T08:21:03;37.90;;;4.45;;
61525;SDS011;47394;41.366;-8.738;2022-12-29T08:23:04;39.90;;;4.65;;
61525;SDS011;47394;41.366;-8.738;2022-12-29T08:25:04;31.83;;;5.20;;
61525;SDS011;47394;41.366;-8.738;2022-12-29T08:27:05;35.15;;;5.40;;
61525;SDS011;47394;41.366;-8.738;2022-12-29T08:29:05;39.92;;;5.05;;
61525;SDS011;47394;41.366;-8.738;2022-12-29T08:31:06;32.30;;;5.20;;
61525;SDS011;47394;41.366;-8.738;2022-12-29T08:33:06;34.90;;;6.10;;
61525;SDS011;47394;41.366;-8.738;2022-12-29T08:35:07;34.20;;;6.82;;
61525;SDS011;47394;41.366;-8.738;2022-12-29T08:37:08;52.00;;;6.63;;
61525;SDS011;47394;41.366;-8.738;2022-12-29T08:39:08;58.67;;;7.63;;
61525;SDS011;47394;41.366;-8.738;2022-12-29T08:41:09;59.97;;;7.28;;
61525;SDS011;47394;41.366;-8.738;2022-12-29T08:43:09;68.35;;;9.15;;
61525;SDS011;47394;41.366;-8.738;2022-12-29T08:45:10;61.75;;;8.85;;
61525;SDS011;47394;41.366;-8.738;2022-12-29T08:47:11;48.28;;;8.00;;
61525;SDS011;47394;41.366;-8.738;2022-12-29T08:49:11;46.75;;;6.10;;
61525;SDS011;47394;41.366;-8.738;2022-12-29T08:51:12;41.80;;;7.32;;
61525;SDS011;47394;41.366;-8.738;2022-12-29T08:53:13;42.60;;;6.47;;
61525;SDS011;47394;41.366;-8.738;2022-12-29T08:55:13;30.60;;;5.88;;
61525;SDS011;47394;41.366;-8.738;2022-12-29T08:57:14;38.85;;;5.97;;
61525;SDS011;47394;41.366;-8.738;2022-12-29T08:59:36;36.05;;;5.82;;
61525;SDS011;47394;41.366;-8.738;2022-12-29T09:01:37;42.33;;;6.22;;
61525;SDS011;47394;41.366;-8.738;2022-12-29T09:03:40;41.38;;;6.70;;
61525;SDS011;47394;41.366;-8.738;2022-12-29T09:05:41;73.03;;;8.55;;
61525;SDS011;47394;41.366;-8.738;2022-12-29T09:07:41;42.63;;;6.97;;
61525;SDS011;47394;41.366;-8.738;2022-12-29T09:09:42;51.25;;;8.68;;
61525;SDS011;47394;41.366;-8.738;2022-12-29T09:11:42;36.38;;;6.95;;
61525;SDS011;47394;41.366;-8.738;2022-12-29T09:13:43;34.85;;;6.25;;
61525;SDS011;47394;41.366;-8.738;2022-12-29T09:15:44;37.97;;;7.00;;
61525;SDS011;47394;41.366;-8.738;2022-12-29T09:17:44;52.38;;;7.15;;
61525;SDS011;47394;41.366;-8.738;2022-12-29T09:19:45;37.72;;;7.00;;
61525;SDS011;47394;41.366;-8.738;2022-12-29T09:21:46;38.80;;;6.80;;
61525;SDS011;47394;41.366;-8.738;2022-12-29T09:23:47;36.53;;;7.10;;
61525;SDS011;47394;41.366;-8.738;2022-12-29T09:25:47;44.65;;;7.50;;
61525;SDS011;47394;41.366;-8.738;2022-12-29T09:27:48;34.35;;;7.78;;
61525;SDS011;47394;41.366;-8.738;2022-12-29T09:29:49;42.63;;;7.60;;
61525;SDS011;47394;41.366;-8.738;2022-12-29T09:31:49;47.08;;;7.22;;
61525;SDS011;47394;41.366;-8.738;2022-12-29T09:33:49;44.65;;;7.30;;
61525;SDS011;47394;41.366;-8.738;2022-12-29T09:35:51;48.17;;;8.45;;
61525;SDS011;47394;41.366;-8.738;2022-12-29T09:37:52;51.03;;;7.28;;
61525;SDS011;47394;41.366;-8.738;2022-12-29T09:39:53;38.88;;;6.95;;
61525;SDS011;47394;41.366;-8.738;2022-12-29T09:43:59;38.83;;;7.95;;
61525;SDS011;47394;41.366;-8.738;2022-12-29T09:48:07;45.35;;;7.90;;
61525;SDS011;47394;41.366;-8.738;2022-12-29T09:52:31;58.45;;;7.57;;
61525;SDS011;47394;41.366;-8.738;2022-12-29T09:56:42;49.90;;;8.57;;
61525;SDS011;47394;41.366;-8.738;2022-12-29T10:01:04;51.95;;;8.23;;
61525;SDS011;47394;41.366;-8.738;2022-12-29T10:03:14;52.58;;;8.27;;
61525;SDS011;47394;41.366;-8.738;2022-12-29T10:07:25;44.03;;;5.72;;
61525;SDS011;47394;41.366;-8.738;2022-12-29T10:20:31;49.67;;;7.65;;
61525;SDS011;47394;41.366;-8.738;2022-12-29T10:22:38;67.80;;;8.60;;
61525;SDS011;47394;41.366;-8.738;2022-12-29T10:24:46;47.55;;;7.13;;
61525;SDS011;47394;41.366;-8.738;2022-12-29T10:26:48;48.55;;;7.00;;
61525;SDS011;47394;41.366;-8.738;2022-12-29T10:28:52;53.50;;;7.15;;
61525;SDS011;47394;41.366;-8.738;2022-12-29T10:30:53;43.42;;;6.32;;
61525;SDS011;47394;41.366;-8.738;2022-12-29T10:32:58;42.17;;;6.18;;
61525;SDS011;47394;41.366;-8.738;2022-12-29T10:35:00;76.13;;;18.38;;
61525;SDS011;47394;41.366;-8.738;2022-12-29T10:39:26;63.40;;;7.68;;
61525;SDS011;47394;41.366;-8.738;2022-12-29T10:41:36;60.85;;;8.40;;
61525;SDS011;47394;41.366;-8.738;2022-12-29T10:45:38;66.15;;;8.93;;
61525;SDS011;47394;41.366;-8.738;2022-12-29T10:47:44;80.07;;;10.50;;
61525;SDS011;47394;41.366;-8.738;2022-12-29T10:49:48;72.55;;;9.02;;
61525;SDS011;47394;41.366;-8.738;2022-12-29T10:51:50;55.70;;;8.55;;
61525;SDS011;47394;41.366;-8.738;2022-12-29T10:53:54;69.80;;;7.40;;
61525;SDS011;47394;41.366;-8.738;2022-12-29T10:55:57;54.42;;;7.55;;
61525;SDS011;47394;41.366;-8.738;2022-12-29T10:58:00;52.30;;;6.68;;
61525;SDS011;47394;41.366;-8.738;2022-12-29T11:00:10;46.03;;;6.18;;
61525;SDS011;47394;41.366;-8.738;2022-12-29T11:06:34;49.38;;;7.82;;
61525;SDS011;47394;41.366;-8.738;2022-12-29T11:08:36;41.50;;;6.40;;
61525;SDS011;47394;41.366;-8.738;2022-12-29T11:10:38;47.25;;;6.05;;
61525;SDS011;47394;41.366;-8.738;2022-12-29T11:12:40;46.80;;;7.35;;
61525;SDS011;47394;41.366;-8.738;2022-12-29T11:14:42;67.30;;;8.30;;
61525;SDS011;47394;41.366;-8.738;2022-12-29T11:16:42;69.90;;;7.22;;
61525;SDS011;47394;41.366;-8.738;2022-12-29T11:18:45;53.75;;;5.93;;
61525;SDS011;47394;41.366;-8.738;2022-12-29T11:20:47;60.03;;;8.13;;
61525;SDS011;47394;41.366;-8.738;2022-12-29T11:22:48;50.28;;;7.40;;
61525;SDS011;47394;41.366;-8.738;2022-12-29T11:24:49;51.83;;;6.95;;
61525;SDS011;47394;41.366;-8.738;2022-12-29T11:26:51;48.65;;;11.63;;
61525;SDS011;47394;41.366;-8.738;2022-12-29T11:31:16;60.42;;;12.85;;
61525;SDS011;47394;41.366;-8.738;2022-12-29T11:33:18;59.20;;;14.63;;
61525;SDS011;47394;41.366;-8.738;2022-12-29T11:35:35;36.38;;;8.48;;
61525;SDS011;47394;41.366;-8.738;2022-12-29T11:37:40;26.23;;;6.43;;
61525;SDS011;47394;41.366;-8.738;2022-12-29T11:41:50;24.02;;;4.72;;
61525;SDS011;47394;41.366;-8.738;2022-12-29T11:43:51;24.63;;;4.65;;
61525;SDS011;47394;41.366;-8.738;2022-12-29T11:45:53;49.58;;;6.43;;
61525;SDS011;47394;41.366;-8.738;2022-12-29T11:50:02;16.65;;;3.33;;
61525;SDS011;47394;41.366;-8.738;2022-12-29T11:52:03;29.02;;;4.97;;
61525;SDS011;47394;41.366;-8.738;2022-12-29T11:54:04;42.47;;;6.47;;
61525;SDS011;47394;41.366;-8.738;2022-12-29T11:56:06;55.70;;;6.68;;
61525;SDS011;47394;41.366;-8.738;2022-12-29T12:00:30;50.17;;;6.05;;
61525;SDS011;47394;41.366;-8.738;2022-12-29T12:04:34;52.47;;;6.88;;
61525;SDS011;47394;41.366;-8.738;2022-12-29T12:06:36;47.22;;;6.10;;
61525;SDS011;47394;41.366;-8.738;2022-12-29T12:08:43;32.42;;;4.10;;
61525;SDS011;47394;41.366;-8.738;2022-12-29T12:10:56;16.83;;;2.63;;
61525;SDS011;47394;41.366;-8.738;2022-12-29T12:14:59;14.02;;;2.03;;
61525;SDS011;47394;41.366;-8.738;2022-12-29T12:17:13;13.40;;;1.95;;
61525;SDS011;47394;41.366;-8.738;2022-12-29T12:23:27;18.63;;;2.78;;
61525;SDS011;47394;41.366;-8.738;2022-12-29T12:25:34;22.10;;;2.70;;
61525;SDS011;47394;41.366;-8.738;2022-12-29T12:27:38;19.02;;;2.63;;
61525;SDS011;47394;41.366;-8.738;2022-12-29T12:32:01;31.83;;;3.28;;
61525;SDS011;47394;41.366;-8.738;2022-12-29T12:34:06;24.13;;;3.35;;
61525;SDS011;47394;41.366;-8.738;2022-12-29T12:51:29;16.73;;;2.10;;
61525;SDS011;47394;41.366;-8.738;2022-12-29T12:53:49;20.33;;;2.08;;
61525;SDS011;47394;41.366;-8.738;2022-12-29T12:58:33;15.52;;;2.55;;
61525;SDS011;47394;41.366;-8.738;2022-12-29T13:03:05;13.10;;;1.20;;
61525;SDS011;47394;41.366;-8.738;2022-12-29T13:07:43;8.70;;;1.55;;
61525;SDS011;47394;41.366;-8.738;2022-12-29T13:18:06;26.88;;;4.93;;
61525;SDS011;47394;41.366;-8.738;2022-12-29T13:20:54;26.48;;;4.13;;
61525;SDS011;47394;41.366;-8.738;2022-12-29T13:22:39;27.13;;;4.05;;
61525;SDS011;47394;41.366;-8.738;2022-12-29T13:33:35;24.40;;;3.08;;
61525;SDS011;47394;41.366;-8.738;2022-12-29T13:37:51;39.95;;;4.97;;
61525;SDS011;47394;41.366;-8.738;2022-12-29T13:40:00;39.08;;;4.70;;
61525;SDS011;47394;41.366;-8.738;2022-12-29T13:42:02;40.80;;;9.02;;
61525;SDS011;47394;41.366;-8.738;2022-12-29T13:44:04;34.42;;;7.57;;
61525;SDS011;47394;41.366;-8.738;2022-12-29T13:46:19;28.95;;;4.03;;
61525;SDS011;47394;41.366;-8.738;2022-12-29T13:50:48;23.73;;;5.00;;
61525;SDS011;47394;41.366;-8.738;2022-12-29T14:03:38;24.02;;;4.18;;
61525;SDS011;47394;41.366;-8.738;2022-12-29T14:05:40;35.03;;;5.35;;
61525;SDS011;47394;41.366;-8.738;2022-12-29T14:07:44;33.97;;;5.00;;
61525;SDS011;47394;41.366;-8.738;2022-12-29T14:09:48;26.17;;;4.40;;
61525;SDS011;47394;41.366;-8.738;2022-12-29T14:11:49;38.13;;;5.10;;
61525;SDS011;47394;41.366;-8.738;2022-12-29T14:13:50;38.70;;;4.97;;
61525;SDS011;47394;41.366;-8.738;2022-12-29T14:15:54;37.53;;;4.43;;
61525;SDS011;47394;41.366;-8.738;2022-12-29T14:18:09;34.53;;;6.53;;
61525;SDS011;47394;41.366;-8.738;2022-12-29T14:20:46;27.35;;;4.80;;